createdAt,value
2023-05-14T00:00:02.832Z,7.79
2023-05-14T00:05:29.932Z,7.69
2023-05-14T00:10:37.224Z,7.62
2023-05-14T00:15:44.725Z,7.63
2023-05-14T00:20:54.984Z,7.60
2023-05-14T00:26:02.096Z,7.51
2023-05-14T00:31:09.221Z,7.47
2023-05-14T00:36:16.347Z,7.49
2023-05-14T00:41:23.459Z,7.58
2023-05-14T00:46:30.743Z,7.66
2023-05-14T00:51:38.099Z,7.72
2023-05-14T00:56:46.377Z,7.83
2023-05-14T01:01:54.050Z,7.96
2023-05-14T01:07:10.527Z,8.06
2023-05-14T01:12:21.550Z,8.17
2023-05-14T01:17:34.050Z,8.28
2023-05-14T01:22:41.273Z,8.39
2023-05-14T01:27:56.921Z,8.52
2023-05-14T01:33:12.079Z,8.65
2023-05-14T01:38:21.328Z,8.75
2023-05-14T01:43:29.459Z,8.88
2023-05-14T01:48:37.821Z,8.99
2023-05-14T01:53:44.848Z,9.04
2023-05-14T01:58:54.221Z,9.06
2023-05-14T02:04:02.439Z,9.11
2023-05-14T02:09:09.630Z,9.14
2023-05-14T02:14:16.674Z,9.19
2023-05-14T02:19:23.717Z,9.20
2023-05-14T02:24:30.827Z,9.20
2023-05-14T02:29:38.064Z,9.18
2023-05-14T02:34:45.069Z,9.15
2023-05-14T02:39:52.420Z,9.09
2023-05-14T02:44:59.785Z,9.01
2023-05-14T02:50:08.131Z,8.94
2023-05-14T02:55:15.470Z,8.91
2023-05-14T03:00:23.078Z,8.90
2023-05-14T03:05:30.600Z,8.91
2023-05-14T03:10:37.728Z,8.91
2023-05-14T03:15:44.837Z,8.87
2023-05-14T03:20:52.104Z,8.80
2023-05-14T03:25:59.137Z,8.74
2023-05-14T03:31:06.353Z,8.69
2023-05-14T03:36:13.698Z,8.64
2023-05-14T03:41:21.980Z,8.57
2023-05-14T03:46:28.990Z,8.51
2023-05-14T03:51:36.559Z,8.47
2023-05-14T03:56:44.901Z,8.42
2023-05-14T04:01:53.658Z,8.39
2023-05-14T04:07:00.667Z,8.38
2023-05-14T04:12:10.617Z,8.39
2023-05-14T04:17:17.575Z,8.40
2023-05-14T04:22:24.827Z,8.45
2023-05-14T04:27:31.839Z,8.53
2023-05-14T04:32:39.479Z,8.62
2023-05-14T04:37:46.377Z,8.76
2023-05-14T04:42:53.364Z,8.93
2023-05-14T04:48:00.497Z,9.14
2023-05-14T04:53:07.550Z,9.33
2023-05-14T04:58:14.521Z,9.55
2023-05-14T05:03:21.549Z,9.79
2023-05-14T05:08:28.978Z,10.09
2023-05-14T05:13:35.936Z,10.43
2023-05-14T05:18:44.645Z,10.79
2023-05-14T05:23:51.748Z,11.18
2023-05-14T05:28:58.881Z,11.54
2023-05-14T05:34:06.054Z,11.80
2023-05-14T05:39:13.027Z,12.06
2023-05-14T05:44:19.999Z,12.25
2023-05-14T05:49:27.168Z,12.45
2023-05-14T05:54:34.310Z,12.69
2023-05-14T05:59:41.291Z,12.97
2023-05-14T06:04:48.340Z,13.29
2023-05-14T06:09:55.453Z,13.63
2023-05-14T06:15:02.435Z,13.91
2023-05-14T06:20:11.298Z,14.17
2023-05-14T06:25:18.562Z,14.44
2023-05-14T06:30:25.985Z,14.64
2023-05-14T06:35:34.743Z,14.89
2023-05-14T06:40:45.720Z,15.23
2023-05-14T06:45:51.200Z,15.51
2023-05-14T06:50:58.336Z,15.71
2023-05-14T06:56:05.989Z,15.98
2023-05-14T07:01:13.140Z,16.26
2023-05-14T07:06:21.164Z,16.56
2023-05-14T07:11:28.070Z,16.84
2023-05-14T07:16:35.127Z,17.06
2023-05-14T07:21:42.157Z,17.20
2023-05-14T07:26:49.218Z,17.32
2023-05-14T07:31:56.378Z,17.26
2023-05-14T07:37:04.052Z,17.29
2023-05-14T07:42:12.550Z,17.33
2023-05-14T07:47:24.128Z,17.35
2023-05-14T07:52:31.169Z,17.42
2023-05-14T07:57:38.377Z,17.51
2023-05-14T08:02:45.578Z,17.57
2023-05-14T08:07:52.578Z,17.57
2023-05-14T08:12:59.539Z,17.63
2023-05-14T08:18:07.430Z,17.73
2023-05-14T08:23:14.458Z,17.82
2023-05-14T08:28:21.673Z,17.88
2023-05-14T08:33:29.053Z,17.91
2023-05-14T08:38:36.123Z,17.99
2023-05-14T08:43:59.021Z,18.14
2023-05-14T08:49:16.890Z,18.24
2023-05-14T08:54:26.302Z,18.27
2023-05-14T08:59:33.374Z,18.49
2023-05-14T09:04:41.102Z,18.73
2023-05-14T09:09:49.252Z,18.88
2023-05-14T09:14:56.260Z,19.04
2023-05-14T09:20:05.116Z,19.09
2023-05-14T09:25:13.385Z,19.16
2023-05-14T09:30:20.668Z,19.48
2023-05-14T09:35:27.795Z,19.48
2023-05-14T09:40:34.984Z,19.67
2023-05-14T09:45:43.650Z,19.94
2023-05-14T09:50:52.210Z,20.16
2023-05-14T09:55:59.224Z,20.20
2023-05-14T10:01:07.390Z,20.23
2023-05-14T10:06:19.148Z,20.51
2023-05-14T10:11:29.767Z,20.74
2023-05-14T10:16:39.239Z,20.82
2023-05-14T10:21:49.978Z,21.05
2023-05-14T10:26:58.806Z,21.32
2023-05-14T10:32:10.158Z,21.60
2023-05-14T10:37:18.518Z,22.08
2023-05-14T10:42:28.335Z,22.35
2023-05-14T10:47:36.888Z,22.47
2023-05-14T10:52:45.749Z,22.32
2023-05-14T10:57:53.552Z,22.08
2023-05-14T11:03:01.785Z,22.01
2023-05-14T11:08:10.329Z,22.32
2023-05-14T11:13:18.923Z,22.66
2023-05-14T11:18:33.658Z,22.48
2023-05-14T11:23:41.134Z,22.49
2023-05-14T11:28:48.108Z,22.61
2023-05-14T11:33:56.357Z,22.53
2023-05-14T11:39:03.210Z,22.44
2023-05-14T11:44:11.792Z,22.84
2023-05-14T11:49:18.794Z,23.08
2023-05-14T11:54:28.784Z,23.46
2023-05-14T11:59:35.926Z,23.93
2023-05-14T12:04:43.943Z,24.61
2023-05-14T12:09:51.560Z,24.92
2023-05-14T12:15:00.696Z,25.30
2023-05-14T12:20:12.618Z,25.79
2023-05-14T12:25:19.844Z,26.33
2023-05-14T12:30:26.855Z,27.27
2023-05-14T12:35:33.949Z,27.68
2023-05-14T12:40:41.000Z,27.94
2023-05-14T12:45:48.034Z,27.43
2023-05-14T12:50:55.078Z,27.08
2023-05-14T12:56:02.431Z,27.68
2023-05-14T13:01:09.448Z,28.19
2023-05-14T13:06:16.529Z,28.38
2023-05-14T13:11:23.528Z,28.68
2023-05-14T13:16:31.387Z,29.43
2023-05-14T13:21:38.639Z,29.72
2023-05-14T13:26:45.660Z,28.95
2023-05-14T13:31:53.080Z,28.06
2023-05-14T13:37:00.130Z,27.26
2023-05-14T13:42:07.683Z,26.81
2023-05-14T13:47:14.715Z,26.74
2023-05-14T13:52:21.768Z,26.92
2023-05-14T13:57:28.695Z,26.93
2023-05-14T14:02:35.848Z,26.98
2023-05-14T14:07:42.865Z,27.31
2023-05-14T14:12:50.221Z,26.91
2023-05-14T14:17:57.282Z,26.89
2023-05-14T14:23:04.137Z,26.84
2023-05-14T14:28:11.250Z,26.21
2023-05-14T14:33:18.193Z,25.66
2023-05-14T14:38:25.515Z,25.05
2023-05-14T14:43:32.572Z,24.33
2023-05-14T14:48:40.050Z,23.84
2023-05-14T14:53:46.939Z,23.45
2023-05-14T14:58:53.967Z,23.18
2023-05-14T15:04:00.838Z,22.91
2023-05-14T15:09:09.253Z,22.70
2023-05-14T15:14:16.195Z,22.49
2023-05-14T15:19:23.161Z,22.31
2023-05-14T15:24:30.232Z,22.10
2023-05-14T15:29:37.247Z,21.99
2023-05-14T15:34:44.156Z,21.93
2023-05-14T15:39:51.122Z,21.86
2023-05-14T15:44:58.069Z,21.81
2023-05-14T15:50:05.582Z,21.73
2023-05-14T15:55:13.267Z,21.71
2023-05-14T16:00:21.460Z,21.64
2023-05-14T16:05:28.560Z,21.56
2023-05-14T16:10:35.510Z,21.50
2023-05-14T16:15:43.672Z,21.32
2023-05-14T16:20:50.598Z,21.21
2023-05-14T16:25:57.957Z,21.04
2023-05-14T16:31:05.057Z,20.95
2023-05-14T16:36:12.246Z,20.80
2023-05-14T16:41:19.354Z,20.69
2023-05-14T16:46:28.225Z,20.59
2023-05-14T16:51:38.381Z,20.48
2023-05-14T16:56:48.301Z,20.35
2023-05-14T17:01:57.683Z,20.20
2023-05-14T17:07:04.975Z,19.91
2023-05-14T17:12:13.680Z,19.81
2023-05-14T17:17:20.952Z,19.67
2023-05-14T17:22:28.566Z,19.55
2023-05-14T17:27:36.322Z,19.49
2023-05-14T17:32:43.351Z,19.37
2023-05-14T17:37:50.449Z,19.18
2023-05-14T17:42:57.498Z,19.02
2023-05-14T17:48:04.580Z,18.90
2023-05-14T17:53:11.533Z,18.78
2023-05-14T17:58:18.796Z,18.62
2023-05-14T18:03:25.918Z,18.46
2023-05-14T18:08:33.154Z,18.33
2023-05-14T18:13:40.155Z,18.18
2023-05-14T18:18:49.736Z,18.10
2023-05-14T18:23:57.139Z,17.98
2023-05-14T18:29:04.260Z,17.86
2023-05-14T18:34:11.951Z,17.73
2023-05-14T18:39:19.931Z,17.57
2023-05-14T18:44:27.169Z,17.46
2023-05-14T18:49:34.522Z,17.32
2023-05-14T18:54:41.522Z,17.17
2023-05-14T18:59:48.986Z,17.11
2023-05-14T19:04:56.145Z,17.03
2023-05-14T19:10:03.793Z,16.94
2023-05-14T19:15:12.189Z,16.88
2023-05-14T19:20:19.170Z,16.81
2023-05-14T19:25:26.436Z,16.71
2023-05-14T19:30:33.679Z,16.56
2023-05-14T19:35:40.751Z,16.40
2023-05-14T19:40:47.686Z,16.29
2023-05-14T19:45:54.808Z,16.17
2023-05-14T19:51:01.938Z,16.05
2023-05-14T19:56:10.439Z,15.90
2023-05-14T20:01:17.569Z,15.80
2023-05-14T20:06:24.733Z,15.75
2023-05-14T20:11:31.823Z,15.60
2023-05-14T20:16:39.560Z,15.48
2023-05-14T20:21:46.623Z,15.31
2023-05-14T20:26:53.686Z,15.20
2023-05-14T20:32:00.669Z,15.18
2023-05-14T20:37:08.142Z,15.16
2023-05-14T20:42:15.157Z,15.15
2023-05-14T20:47:24.964Z,15.08
2023-05-14T20:52:31.945Z,14.91
2023-05-14T20:57:40.007Z,14.77
2023-05-14T21:02:46.935Z,14.65
2023-05-14T21:07:54.043Z,14.54
2023-05-14T21:13:01.045Z,14.47
2023-05-14T21:18:08.094Z,14.40
2023-05-14T21:23:15.069Z,14.23
2023-05-14T21:28:22.281Z,14.12
2023-05-14T21:33:29.241Z,14.05
2023-05-14T21:38:36.381Z,13.95
2023-05-14T21:43:45.187Z,13.89
2023-05-14T21:48:52.360Z,13.79
2023-05-14T21:53:59.376Z,13.70
2023-05-14T21:59:06.459Z,13.62
2023-05-14T22:04:13.406Z,13.56
2023-05-14T22:09:20.359Z,13.49
2023-05-14T22:14:27.688Z,13.40
2023-05-14T22:19:34.698Z,13.36
2023-05-14T22:24:41.645Z,13.32
2023-05-14T22:29:50.048Z,13.27
2023-05-14T22:34:56.962Z,13.24
2023-05-14T22:40:11.789Z,13.19
2023-05-14T22:45:18.809Z,13.16
2023-05-14T22:50:25.674Z,13.10
2023-05-14T22:55:33.258Z,13.07
2023-05-14T23:00:40.406Z,13.05
2023-05-14T23:05:47.412Z,13.03
2023-05-14T23:10:54.406Z,13.00
2023-05-14T23:16:01.351Z,12.96
2023-05-14T23:21:08.499Z,12.96
2023-05-14T23:26:15.701Z,12.93
2023-05-14T23:31:23.777Z,12.89
2023-05-14T23:36:31.523Z,12.87
2023-05-14T23:41:38.573Z,12.86
2023-05-14T23:46:45.640Z,12.82
2023-05-14T23:51:52.876Z,12.81
2023-05-14T23:56:59.891Z,12.80
